Time;durP1;ratioP1;P1;durP2;ratioP2;P2;SDS_P1;SDS_P2;PMS_P1;PMS_P2;Temp;Humidity;BMP_temperature;BMP_pressure;BME280_temperature;BME280_humidity;BME280_pressure;Samples;Min_cycle;Max_cycle;Signal;HPM_P1;HPM_P2
2022/10/02 00:02:28;;;;;;;10.63;4.30;;;;;;;20.72;55.85;99398.92;125079;1099;104208;-75
2022/10/02 00:05:03;;;;;;;9.83;4.40;;;;;;;20.70;56.46;99390.09;125235;1099;104399;-75
2022/10/02 00:07:40;;;;;;;11.43;5.13;;;;;;;20.70;55.61;99381.23;125033;1099;104204;-75
2022/10/02 00:10:18;;;;;;;10.10;4.77;;;;;;;20.70;56.25;99378.57;125317;1099;104201;-75
2022/10/02 00:12:53;;;;;;;9.00;4.80;;;;;;;20.68;56.17;99375.05;125182;1099;104253;-75
2022/10/02 00:15:27;;;;;;;9.97;4.97;;;;;;;20.67;56.79;99374.18;125200;1099;102409;-75
2022/10/02 00:18:02;;;;;;;10.23;4.90;;;;;;;20.68;56.63;99356.38;125254;1099;104235;-75
2022/10/02 00:20:40;;;;;;;11.97;5.30;;;;;;;20.68;56.41;99365.28;125316;1099;104153;-75
2022/10/02 00:23:16;;;;;;;12.20;5.33;;;;;;;20.68;55.85;99351.05;125255;1098;104188;-75
2022/10/02 00:25:56;;;;;;;15.27;5.03;;;;;;;20.68;55.91;99345.73;125125;1099;104261;-75
2022/10/02 00:28:31;;;;;;;13.90;5.00;;;;;;;20.66;56.41;99345.77;125299;1099;104150;-74
2022/10/02 00:31:21;;;;;;;9.90;4.63;;;;;;;20.67;56.62;99344.86;125224;1099;104181;-76
2022/10/02 00:34:05;;;;;;;14.30;5.10;;;;;;;20.66;56.56;99348.42;124910;1099;104086;-76
2022/10/02 00:36:46;;;;;;;11.03;5.20;;;;;;;20.67;57.02;99342.19;124996;1099;104220;-76
2022/10/02 00:39:31;;;;;;;10.03;5.03;;;;;;;20.68;56.69;99343.06;125082;1098;102104;-76
2022/10/02 00:42:47;;;;;;;11.30;4.83;;;;;;;20.69;56.34;99344.82;125015;1099;104163;-75
2022/10/02 00:45:51;;;;;;;14.20;5.30;;;;;;;20.66;56.31;99340.43;124776;1099;107375;-75
2022/10/02 00:48:47;;;;;;;11.87;4.60;;;;;;;20.62;56.40;99334.27;124873;1099;104235;-76
2022/10/02 00:51:35;;;;;;;13.53;5.20;;;;;;;20.54;55.95;99338.06;124934;1099;102669;-75
2022/10/02 00:54:20;;;;;;;10.80;4.87;;;;;;;20.46;57.23;99344.43;124991;1099;104172;-75
2022/10/02 00:56:58;;;;;;;10.50;5.10;;;;;;;20.42;57.33;99339.20;125146;1099;104326;-76
2022/10/02 00:59:49;;;;;;;12.50;5.33;;;;;;;20.34;57.54;99327.86;125149;1099;104176;-75
2022/10/02 01:02:56;;;;;;;10.10;5.27;;;;;;;20.23;56.97;99328.97;125282;1099;104198;-75
2022/10/02 01:05:28;;;;;;;14.03;5.60;;;;;;;20.17;57.96;99323.78;124947;1099;101860;-75
2022/10/02 01:08:00;;;;;;;14.20;5.50;;;;;;;20.13;57.91;99318.55;125161;1099;104826;-75
2022/10/02 01:10:32;;;;;;;9.43;5.37;;;;;;;20.07;57.44;99312.46;125116;1099;101965;-75
2022/10/02 01:13:03;;;;;;;14.73;5.40;;;;;;;20.05;58.28;99324.91;125039;1099;104214;-76
2022/10/02 01:15:37;;;;;;;11.07;5.50;;;;;;;20.02;58.15;99321.45;125014;1099;104230;-76
2022/10/02 01:18:07;;;;;;;;;;;;;;;19.93;57.24;99319.88;124934;1099;104195;-75
2022/10/02 01:20:41;;;;;;;14.23;5.87;;;;;;;19.87;58.77;99323.54;124938;1099;104166;-75
2022/10/02 01:23:29;;;;;;;12.73;5.77;;;;;;;19.86;58.04;99320.91;124947;1099;102751;-75
2022/10/02 01:26:00;;;;;;;13.17;5.27;;;;;;;19.85;57.88;99312.06;124963;1099;104622;-75
2022/10/02 01:28:32;;;;;;;13.43;5.70;;;;;;;19.86;58.13;99315.59;125045;1098;104222;-75
2022/10/02 01:31:09;;;;;;;10.40;5.50;;;;;;;19.88;59.06;99314.66;124978;1099;104210;-75
2022/10/02 01:33:42;;;;;;;9.93;5.40;;;;;;;19.88;58.26;99311.99;124944;1099;104213;-76
2022/10/02 01:36:15;;;;;;;11.30;5.27;;;;;;;19.90;58.80;99314.63;124992;1099;102991;-76
2022/10/02 01:38:49;;;;;;;11.48;5.75;;;;;;;19.89;58.41;99310.20;124935;1099;103232;-75
2022/10/02 01:41:20;;;;;;;11.23;5.17;;;;;;;19.85;59.05;99311.16;124882;1099;104169;-76
2022/10/02 01:43:56;;;;;;;11.37;5.63;;;;;;;19.82;58.77;99305.91;124964;1099;102815;-75
2022/10/02 01:46:41;;;;;;;12.47;5.70;;;;;;;19.82;59.20;99311.22;124885;1099;104242;-75
2022/10/02 01:49:25;;;;;;;12.50;5.60;;;;;;;19.82;59.40;99305.91;124914;1099;103106;-76
2022/10/02 01:52:21;;;;;;;11.55;5.00;;;;;;;19.80;59.60;99315.72;124991;1099;104061;-75
2022/10/02 01:55:11;;;;;;;14.07;5.40;;;;;;;19.78;59.66;99306.89;125151;1098;104159;-75
2022/10/02 01:57:54;;;;;;;12.50;5.27;;;;;;;19.78;59.16;99310.42;124964;1099;104175;-75
2022/10/02 02:00:27;;;;;;;10.10;5.37;;;;;;;19.79;58.79;99317.51;125010;1099;101961;-75
2022/10/02 02:03:10;;;;;;;15.30;5.35;;;;;;;19.82;59.20;99316.55;124845;1099;102870;-75
2022/10/02 02:05:50;;;;;;;10.30;5.43;;;;;;;19.84;59.18;99318.28;124952;1099;101910;-76
2022/10/02 02:08:30;;;;;;;13.23;6.00;;;;;;;19.84;58.98;99315.62;124910;1099;102707;-75
2022/10/02 02:11:10;;;;;;;11.53;5.60;;;;;;;19.84;58.89;99310.30;124896;1099;104287;-75
2022/10/02 02:13:48;;;;;;;13.57;5.67;;;;;;;19.81;59.01;99315.68;124902;1099;102765;-75
2022/10/02 02:16:26;;;;;;;10.20;5.70;;;;;;;19.82;59.13;99322.77;124899;1099;104174;-75
2022/10/02 02:19:05;;;;;;;14.77;6.43;;;;;;;19.81;59.59;99320.14;124911;1099;104204;-74
2022/10/02 02:21:39;;;;;;;10.20;5.13;;;;;;;19.81;59.68;99322.80;124889;1096;104054;-75
2022/10/02 02:24:15;;;;;;;9.10;4.97;;;;;;;19.81;59.33;99313.02;124889;1099;104169;-75
2022/10/02 02:26:47;;;;;;;13.57;5.00;;;;;;;19.81;59.56;99312.16;124946;1099;104172;-75
2022/10/02 02:29:20;;;;;;;10.17;5.10;;;;;;;19.81;58.76;99307.70;124920;1099;104413;-75
2022/10/02 02:31:55;;;;;;;9.50;5.40;;;;;;;19.82;59.23;99320.11;124920;1099;102762;-75
2022/10/02 02:34:31;;;;;;;10.47;5.47;;;;;;;19.83;59.06;99335.14;124875;1099;104175;-74
2022/10/02 02:37:06;;;;;;;12.80;5.73;;;;;;;19.81;59.15;99341.43;124846;1099;102797;-75
2022/10/02 02:39:46;;;;;;;20.50;5.40;;;;;;;19.78;58.53;99339.70;124904;1099;104239;-75
2022/10/02 02:42:21;;;;;;;13.23;5.30;;;;;;;19.78;59.52;99344.16;124903;1099;104258;-75
2022/10/02 02:44:58;;;;;;;10.33;5.13;;;;;;;19.78;58.61;99344.16;124887;1099;104057;-75
2022/10/02 02:47:36;;;;;;;10.93;5.00;;;;;;;19.76;59.47;99338.83;124917;1099;101825;-75
2022/10/02 02:50:12;;;;;;;11.63;4.70;;;;;;;19.76;59.47;99330.84;124917;1099;104166;-75
2022/10/02 02:52:49;;;;;;;12.67;5.30;;;;;;;19.77;58.45;99321.10;124987;1099;104172;-75
2022/10/02 02:55:23;;;;;;;11.17;5.23;;;;;;;19.77;58.80;99337.07;124916;1099;102887;-75
2022/10/02 02:57:58;;;;;;;11.43;5.53;;;;;;;19.74;59.30;99337.97;124906;1099;104175;-75
2022/10/02 03:00:29;;;;;;;11.50;5.20;;;;;;;19.72;59.25;99340.66;124970;1099;104201;-75
2022/10/02 03:03:01;;;;;;;10.17;4.40;;;;;;;19.71;59.22;99336.27;125019;1099;104256;-75
2022/10/02 03:05:34;;;;;;;10.93;4.80;;;;;;;19.69;59.18;99337.19;124966;1099;102133;-75
2022/10/02 03:08:14;;;;;;;10.05;4.65;;;;;;;19.64;59.50;99331.09;124895;1098;101925;-75
2022/10/02 03:11:02;;;;;;;9.67;4.90;;;;;;;19.59;59.02;99339.16;124918;1099;104230;-75
2022/10/02 03:13:44;;;;;;;13.03;5.07;;;;;;;19.57;59.34;99336.53;124909;1098;104156;-76
2022/10/02 03:16:34;;;;;;;14.00;5.40;;;;;;;19.54;59.37;99333.03;124913;1098;104235;-76
2022/10/02 03:19:16;;;;;;;10.13;5.70;;;;;;;19.51;59.28;99330.44;124865;1099;104201;-75
2022/10/02 03:21:58;;;;;;;9.50;5.00;;;;;;;19.47;59.86;99328.77;124959;1099;104195;-75
2022/10/02 03:24:35;;;;;;;12.97;5.27;;;;;;;19.44;59.69;99332.34;124924;1099;102781;-76
2022/10/02 03:27:12;;;;;;;9.67;4.73;;;;;;;19.42;59.42;99331.51;124867;1097;104235;-75
2022/10/02 03:29:49;;;;;;;13.07;5.73;;;;;;;19.40;59.73;99334.20;124818;1099;104173;-75
2022/10/02 03:32:22;;;;;;;13.47;5.27;;;;;;;19.37;60.18;99342.23;124967;1099;102824;-75
2022/10/02 03:34:55;;;;;;;13.58;5.55;;;;;;;19.34;60.18;99350.27;124851;1099;104223;-75
2022/10/02 03:37:27;;;;;;;14.53;5.78;;;;;;;19.30;60.08;99353.02;124834;1099;104089;-76
2022/10/02 03:40:03;;;;;;;10.63;5.60;;;;;;;19.19;60.49;99356.73;124869;1098;104769;-75
2022/10/02 03:42:37;;;;;;;12.30;5.50;;;;;;;19.11;61.09;99355.13;124780;1099;102920;-75
2022/10/02 03:45:09;;;;;;;14.40;5.33;;;;;;;19.03;60.84;99349.95;124846;1099;102794;-76
2022/10/02 03:47:40;;;;;;;10.33;5.70;;;;;;;18.94;61.28;99347.44;124824;1099;101985;-75
2022/10/02 03:50:13;;;;;;;10.60;5.53;;;;;;;18.86;61.69;99342.25;124757;1099;103197;-75
2022/10/02 03:52:45;;;;;;;11.43;5.95;;;;;;;18.79;61.72;99338.80;124843;1099;102162;-75
2022/10/02 03:55:28;;;;;;;12.73;5.30;;;;;;;18.74;62.30;99345.08;124829;1099;104261;-75
2022/10/02 03:58:02;;;;;;;12.93;6.00;;;;;;;18.69;61.98;99342.49;124932;1099;104246;-75
2022/10/02 04:00:38;;;;;;;12.20;6.57;;;;;;;18.64;62.16;99337.25;124841;1099;104258;-76
2022/10/02 04:03:15;;;;;;;10.03;5.90;;;;;;;18.60;62.58;99337.33;124523;1099;104229;-76
2022/10/02 04:05:51;;;;;;;13.90;6.67;;;;;;;18.58;62.75;99337.34;124914;1099;104169;-75
2022/10/02 04:08:28;;;;;;;15.30;7.17;;;;;;;18.57;63.31;99340.02;124866;1098;104176;-75
2022/10/02 04:11:07;;;;;;;11.60;6.93;;;;;;;18.54;62.63;99346.25;124891;1099;104169;-75
2022/10/02 04:13:43;;;;;;;15.13;7.17;;;;;;;18.53;62.87;99340.97;125010;1099;104251;-76
2022/10/02 04:16:18;;;;;;;18.17;7.30;;;;;;;18.51;63.38;99340.98;124820;1099;102414;-75
2022/10/02 04:18:55;;;;;;;14.00;7.03;;;;;;;18.48;63.49;99341.03;124892;1099;104200;-75
2022/10/02 04:21:40;;;;;;;18.00;7.43;;;;;;;18.44;63.49;99342.87;124824;1099;102913;-75
2022/10/02 04:24:19;;;;;;;17.50;7.23;;;;;;;18.40;63.67;99342.94;124952;1099;104157;-75
2022/10/02 04:26:59;;;;;;;15.27;6.50;;;;;;;18.38;63.88;99358.02;124759;1099;102775;-75
2022/10/02 04:29:39;;;;;;;12.93;6.80;;;;;;;18.32;64.32;99357.22;124839;1099;104267;-75
2022/10/02 04:32:14;;;;;;;13.60;5.73;;;;;;;18.29;65.19;99364.33;124820;1099;104261;-75
2022/10/02 04:34:46;;;;;;;13.40;6.30;;;;;;;18.22;65.10;99363.55;124784;1099;104261;-74
2022/10/02 04:37:32;;;;;;;12.00;5.80;;;;;;;18.18;65.00;99360.95;124854;1099;104169;-75
2022/10/02 04:40:24;;;;;;;12.23;5.80;;;;;;;18.15;64.95;99369.83;124871;1099;118532;-75
2022/10/02 04:43:10;;;;;;;12.83;5.90;;;;;;;18.12;65.49;99373.42;124894;1099;104372;-75
2022/10/02 04:46:03;;;;;;;13.80;5.77;;;;;;;18.11;65.37;99382.27;124811;1099;102019;-75
2022/10/02 04:49:01;;;;;;;16.70;6.10;;;;;;;18.09;65.86;99380.52;124850;1099;104227;-75
2022/10/02 04:51:50;;;;;;;13.00;6.30;;;;;;;18.08;65.91;99395.58;124790;1098;101793;-76
2022/10/02 04:54:41;;;;;;;13.73;6.13;;;;;;;18.07;65.87;99399.13;124768;1099;104285;-76
2022/10/02 04:57:28;;;;;;;13.83;7.13;;;;;;;18.07;66.78;99411.53;124748;1099;104205;-76
2022/10/02 05:00:11;;;;;;;14.17;6.60;;;;;;;18.06;66.65;99412.41;124854;1099;104156;-76
2022/10/02 05:03:02;;;;;;;11.90;5.67;;;;;;;18.08;66.62;99413.30;124842;1099;101867;-76
2022/10/02 05:05:47;;;;;;;12.67;5.57;;;;;;;18.09;66.92;99417.69;124854;1099;102796;-75
2022/10/02 05:08:32;;;;;;;12.87;6.60;;;;;;;18.12;67.33;99417.65;124872;1099;104251;-75
2022/10/02 05:11:25;;;;;;;12.73;5.87;;;;;;;18.15;67.67;99433.54;124793;1099;108110;-74
2022/10/02 05:14:13;;;;;;;14.10;5.97;;;;;;;18.17;67.29;99429.11;124807;1099;104048;-75
2022/10/02 05:17:07;;;;;;;8.73;5.67;;;;;;;18.19;67.71;99429.09;124784;1099;104214;-75
2022/10/02 05:19:56;;;;;;;11.90;6.30;;;;;;;18.19;67.75;99424.66;124797;1099;104182;-75
2022/10/02 05:22:54;;;;;;;10.47;5.40;;;;;;;18.22;68.08;99419.30;124831;1099;104233;-75
2022/10/02 05:25:51;;;;;;;11.50;5.97;;;;;;;18.27;69.32;99416.59;124793;1099;104453;-75
2022/10/02 05:28:38;;;;;;;11.20;6.20;;;;;;;18.26;68.08;99418.38;124785;1099;104244;-76
2022/10/02 05:31:20;;;;;;;10.57;6.30;;;;;;;18.28;68.39;99416.56;124679;1099;104163;-74
2022/10/02 05:34:07;;;;;;;15.93;6.67;;;;;;;18.28;68.79;99413.91;124779;1099;104220;-76
2022/10/02 05:36:56;;;;;;;12.43;5.67;;;;;;;18.30;68.84;99421.86;124905;1099;102974;-76
2022/10/02 05:39:32;;;;;;;12.03;6.00;;;;;;;18.31;68.70;99419.19;124924;1099;102235;-75
2022/10/02 05:42:13;;;;;;;10.93;5.80;;;;;;;18.35;69.10;99427.11;124819;1099;102785;-75
2022/10/02 05:44:50;;;;;;;12.50;5.90;;;;;;;18.37;69.19;99422.65;124838;1099;104175;-74
2022/10/02 05:47:28;;;;;;;11.13;6.07;;;;;;;18.37;69.13;99423.55;124820;1099;102768;-75
2022/10/02 05:50:07;;;;;;;12.80;5.80;;;;;;;18.41;69.40;99424.38;124760;1099;103095;-75
2022/10/02 05:52:46;;;;;;;12.50;5.87;;;;;;;18.42;69.61;99421.70;126008;1098;104316;-75
2022/10/02 05:55:23;;;;;;;12.57;6.23;;;;;;;18.42;69.47;99420.83;124754;1098;104159;-75
2022/10/02 05:58:01;;;;;;;14.20;6.00;;;;;;;18.45;70.21;99420.76;124803;1099;104187;-75
2022/10/02 06:00:38;;;;;;;11.97;6.17;;;;;;;18.47;70.01;99427.81;124797;1099;104290;-76
2022/10/02 06:03:18;;;;;;;11.13;6.07;;;;;;;18.53;70.51;99433.94;124824;1099;104254;-75
2022/10/02 06:06:02;;;;;;;11.10;5.63;;;;;;;18.59;71.97;99432.09;124899;1099;102069;-75
2022/10/02 06:08:34;;;;;;;;;;;;;;;18.60;71.27;99438.27;124968;1099;104207;-75
2022/10/02 06:11:11;;;;;;;11.70;5.80;;;;;;;18.60;71.01;99436.48;124763;1099;104258;-75
2022/10/02 06:13:48;;;;;;;12.13;5.27;;;;;;;18.62;72.12;99445.34;124844;1098;104226;-75
2022/10/02 06:16:26;;;;;;;10.87;5.30;;;;;;;18.55;71.66;99443.66;124858;1099;102851;-75
2022/10/02 06:19:02;;;;;;;7.97;5.03;;;;;;;18.53;71.29;99452.53;124766;1098;104214;-75
2022/10/02 06:21:39;;;;;;;9.37;5.13;;;;;;;18.52;71.86;99456.97;124924;1099;104185;-75
2022/10/02 06:24:18;;;;;;;7.47;4.37;;;;;;;18.46;70.86;99468.55;124954;1099;104232;-75
2022/10/02 06:26:55;;;;;;;8.20;4.30;;;;;;;18.49;71.10;99467.64;124926;1098;102774;-75
2022/10/02 06:29:34;;;;;;;9.73;4.00;;;;;;;18.51;70.98;99468.48;124939;1099;104291;-75
2022/10/02 06:32:18;;;;;;;8.87;3.87;;;;;;;18.55;70.70;99466.69;124799;1098;104338;-75
2022/10/02 06:34:51;;;;;;;7.70;3.70;;;;;;;18.53;70.37;99481.75;125002;1099;104160;-75
2022/10/02 06:37:35;;;;;;;8.53;3.23;;;;;;;18.45;70.09;99490.72;124969;1098;104156;-75
2022/10/02 06:40:20;;;;;;;4.13;2.93;;;;;;;18.36;69.63;99505.89;125056;1099;102628;-75
2022/10/02 06:43:00;;;;;;;9.63;2.77;;;;;;;18.25;69.18;99508.67;124989;1099;119980;-74
2022/10/02 06:45:38;;;;;;;3.70;2.50;;;;;;;18.17;69.02;99529.09;124930;1099;104163;-74
2022/10/02 06:48:22;;;;;;;8.23;2.70;;;;;;;18.07;69.04;99520.36;125070;1099;104175;-74
2022/10/02 06:51:00;;;;;;;4.60;2.67;;;;;;;18.07;69.11;99510.61;124992;1098;104166;-74
2022/10/02 06:53:55;;;;;;;4.63;2.30;;;;;;;18.09;68.80;99526.52;125019;1099;103196;-75
2022/10/02 06:56:44;;;;;;;4.37;2.40;;;;;;;18.11;68.65;99532.72;124862;1099;104185;-74
2022/10/02 06:59:33;;;;;;;5.50;2.60;;;;;;;18.15;68.46;99545.05;124973;1099;102368;-76
2022/10/02 07:02:21;;;;;;;8.77;2.70;;;;;;;18.16;68.26;99540.64;125015;1098;104211;-74
2022/10/02 07:05:03;;;;;;;3.80;2.40;;;;;;;18.12;67.91;99553.94;124922;1099;104176;-75
2022/10/02 07:07:49;;;;;;;6.73;2.57;;;;;;;18.12;67.76;99543.32;124982;1099;101832;-74
2022/10/02 07:10:33;;;;;;;2.97;2.27;;;;;;;18.06;67.69;99546.04;124901;1099;102335;-74
2022/10/02 07:13:31;;;;;;;3.03;2.23;;;;;;;18.06;67.58;99559.31;124961;1099;104239;-74
2022/10/02 07:16:37;;;;;;;3.87;2.00;;;;;;;17.99;67.67;99557.59;125048;1099;103244;-75
2022/10/02 07:19:38;;;;;;;5.63;2.27;;;;;;;17.89;67.43;99559.47;125036;1099;104184;-74
2022/10/02 07:22:23;;;;;;;1.60;1.50;;;;;;;17.85;67.42;99578.05;125075;1099;104169;-75
2022/10/02 07:25:09;;;;;;;2.40;1.80;;;;;;;17.76;66.35;99581.65;125135;1098;104204;-74
2022/10/02 07:27:51;;;;;;;2.43;1.57;;;;;;;17.71;66.55;99579.03;124796;1099;104229;-74
2022/10/02 07:30:22;;;;;;;8.57;2.40;;;;;;;17.71;66.47;99588.78;125011;1099;104191;-74
2022/10/02 07:33:06;;;;;;;3.17;2.00;;;;;;;17.69;66.52;99588.79;124972;1099;104227;-74
2022/10/02 07:35:47;;;;;;;6.73;2.20;;;;;;;17.69;66.78;99598.53;124921;1099;104208;-74
2022/10/02 07:38:44;;;;;;;4.63;2.23;;;;;;;17.74;66.78;99605.55;124874;1099;104208;-75
2022/10/02 07:41:42;;;;;;;5.90;2.13;;;;;;;17.88;66.37;99626.70;124843;1099;104156;-74
2022/10/02 07:44:31;;;;;;;4.10;2.20;;;;;;;17.95;65.61;99632.83;124839;1099;104262;-74
2022/10/02 07:47:17;;;;;;;5.23;2.17;;;;;;;18.00;64.99;99619.52;125171;1099;104159;-74
2022/10/02 07:49:56;;;;;;;5.23;2.10;;;;;;;18.07;64.85;99619.45;124906;1099;104210;-74
2022/10/02 07:52:40;;;;;;;7.27;2.23;;;;;;;18.21;64.09;99619.33;124867;1099;104676;-74
2022/10/02 07:55:18;;;;;;;3.17;2.00;;;;;;;18.28;63.29;99623.69;125153;1099;104073;-74
2022/10/02 07:58:00;;;;;;;5.60;2.50;;;;;;;18.29;62.98;99625.47;125069;1099;105766;-74
2022/10/02 08:00:37;;;;;;;3.70;2.67;;;;;;;18.29;62.78;99616.59;124895;1099;104204;-74
2022/10/02 08:03:13;;;;;;;5.17;2.33;;;;;;;18.23;62.44;99648.52;124977;1099;104265;-74
2022/10/02 08:05:46;;;;;;;5.17;2.30;;;;;;;18.12;61.59;99651.27;125081;1099;102376;-74
2022/10/02 08:08:24;;;;;;;2.80;2.20;;;;;;;18.03;61.21;99635.41;125134;1099;102858;-74
2022/10/02 08:11:10;;;;;;;7.60;2.70;;;;;;;18.00;61.61;99640.75;125068;1098;102170;-74
2022/10/02 08:13:47;;;;;;;7.80;2.80;;;;;;;18.05;61.60;99652.23;124887;1098;104254;-74
2022/10/02 08:16:22;;;;;;;8.80;2.87;;;;;;;18.09;61.53;99645.98;124946;1099;102787;-75
2022/10/02 08:19:00;;;;;;;3.90;2.87;;;;;;;18.10;60.45;99666.34;124996;1099;104185;-74
2022/10/02 08:21:36;;;;;;;5.03;3.00;;;;;;;18.02;60.46;99652.26;125055;1099;102578;-74
2022/10/02 08:24:14;;;;;;;6.10;3.43;;;;;;;18.01;60.63;99648.70;124976;1099;102736;-74
2022/10/02 08:26:52;;;;;;;5.43;3.37;;;;;;;18.02;60.95;99652.26;124986;1099;104233;-74
2022/10/02 08:29:28;;;;;;;6.07;3.47;;;;;;;18.07;61.43;99638.03;125236;1099;104162;-74
2022/10/02 08:32:00;;;;;;;13.50;3.90;;;;;;;18.12;60.67;99640.64;125196;1099;102829;-74
2022/10/02 08:34:33;;;;;;;6.33;3.60;;;;;;;18.19;60.77;99645.02;124959;1099;104270;-74
2022/10/02 08:37:28;;;;;;;8.18;3.25;;;;;;;18.16;60.16;99634.42;125151;1099;104232;-74
2022/10/02 08:40:30;;;;;;;7.97;3.57;;;;;;;18.16;59.73;99641.52;125081;1099;102762;-74
2022/10/02 08:43:31;;;;;;;5.87;2.83;;;;;;;18.06;58.96;99673.45;125229;1099;102000;-75
2022/10/02 08:46:40;;;;;;;7.73;2.80;;;;;;;17.92;59.00;99633.75;125127;1099;117793;-75
2022/10/02 08:49:44;;;;;;;8.43;3.90;;;;;;;17.90;59.07;99655.88;125161;1099;102752;-74
2022/10/02 08:52:49;;;;;;;13.80;3.30;;;;;;;17.74;58.05;99655.95;125145;1098;104144;-74
2022/10/02 08:55:49;;;;;;;8.43;3.27;;;;;;;17.70;58.65;99648.02;124633;1099;104150;-74
2022/10/02 08:58:52;;;;;;;6.97;3.60;;;;;;;17.67;58.43;99654.25;124898;1099;102833;-74
2022/10/02 09:01:43;;;;;;;7.73;3.33;;;;;;;17.59;58.86;99646.34;124545;1099;104323;-74
2022/10/02 09:04:53;;;;;;;5.37;3.03;;;;;;;17.64;59.29;99659.58;124787;1099;104050;-75
2022/10/02 09:08:02;;;;;;;4.77;3.27;;;;;;;17.66;58.06;99646.30;124971;1099;104313;-74
2022/10/02 09:11:09;;;;;;;7.70;2.93;;;;;;;17.56;57.62;99664.94;124817;1099;104233;-74
2022/10/02 09:14:13;;;;;;;3.90;2.80;;;;;;;17.55;57.95;99654.33;124879;1099;104182;-74
2022/10/02 09:17:10;;;;;;;7.53;2.67;;;;;;;17.68;57.37;99663.08;124715;1099;119056;-75
2022/10/02 09:20:01;;;;;;;4.93;2.80;;;;;;;17.74;56.64;99655.95;124843;1098;104281;-75
2022/10/02 09:22:55;;;;;;;6.73;2.80;;;;;;;17.76;57.00;99650.64;124853;1099;102791;-75
2022/10/02 09:25:32;;;;;;;;;;;;;;;17.74;56.39;99666.56;124920;1099;104310;-75
2022/10/02 09:28:30;;;;;;;8.30;2.77;;;;;;;17.64;56.54;99680.80;124941;1099;104242;-74
2022/10/02 09:31:46;;;;;;;5.03;2.50;;;;;;;17.52;56.74;99673.78;124887;1099;104194;-75
2022/10/02 09:34:46;;;;;;;5.35;2.30;;;;;;;17.47;56.90;99670.29;124828;1099;102922;-74
2022/10/02 09:38:09;;;;;;;4.03;2.23;;;;;;;17.46;56.38;99671.17;124976;1099;102807;-75
2022/10/02 09:41:26;;;;;;;4.07;2.00;;;;;;;17.48;56.18;99679.98;124928;1099;104073;-74
2022/10/02 09:44:36;;;;;;;7.77;2.60;;;;;;;17.66;55.87;99680.80;124651;1099;102739;-74
2022/10/02 09:47:30;;;;;;;2.87;2.00;;;;;;;17.86;54.78;99681.53;124723;1099;104380;-74
2022/10/02 09:50:27;;;;;;;9.07;2.10;;;;;;;17.76;54.17;99693.99;125221;1098;104239;-74
2022/10/02 09:53:25;;;;;;;5.90;2.10;;;;;;;17.68;54.84;99702.88;125172;1099;104248;-74
2022/10/02 09:56:48;;;;;;;3.70;2.17;;;;;;;17.58;54.22;99704.71;125155;1099;102193;-74
2022/10/02 09:59:46;;;;;;;4.20;2.27;;;;;;;17.47;54.63;99715.38;124699;1101;102823;-74
2022/10/02 10:02:51;;;;;;;6.97;2.30;;;;;;;17.43;55.08;99705.66;125272;1099;102736;-74
2022/10/02 10:05:55;;;;;;;4.23;2.47;;;;;;;17.36;54.77;99702.17;125277;1099;104163;-74
2022/10/02 10:08:44;;;;;;;6.12;2.22;;;;;;;17.40;54.46;99690.63;125191;1099;104057;-74
2022/10/02 10:11:43;;;;;;;6.70;2.60;;;;;;;17.46;54.73;99689.73;125173;1098;102832;-74
2022/10/02 10:14:43;;;;;;;9.10;2.40;;;;;;;17.61;54.04;99708.22;125255;1099;102777;-73
2022/10/02 10:18:03;;;;;;;9.13;3.00;;;;;;;17.64;54.03;99695.81;125151;1099;104236;-74
2022/10/02 10:21:06;;;;;;;5.73;2.40;;;;;;;17.59;54.21;99696.75;125152;1099;104057;-74
2022/10/02 10:24:20;;;;;;;9.93;3.03;;;;;;;17.59;53.94;99710.01;124992;1099;104063;-75
2022/10/02 10:27:13;;;;;;;4.70;2.90;;;;;;;17.64;53.65;99709.08;124924;1099;102772;-74
2022/10/02 10:30:16;;;;;;;9.20;2.80;;;;;;;17.63;53.85;99694.08;125278;1099;104433;-74
2022/10/02 10:33:19;;;;;;;6.27;2.80;;;;;;;17.57;53.42;99701.16;124998;1099;103079;-74
2022/10/02 10:39:35;;;;;;;8.83;2.60;;;;;;;17.57;53.40;99713.55;124893;1098;104200;-74
2022/10/02 10:42:41;;;;;;;7.20;2.30;;;;;;;17.61;53.36;99702.91;124880;1099;102877;-74
2022/10/02 10:45:37;;;;;;;7.97;2.20;;;;;;;17.65;52.89;99695.80;124733;1099;103386;-74
2022/10/02 10:48:27;;;;;;;13.27;2.30;;;;;;;17.50;51.60;99707.41;124970;1099;104195;-74
2022/10/02 10:51:13;;;;;;;7.50;1.90;;;;;;;17.50;51.87;99710.06;124845;1099;102774;-74
2022/10/02 10:54:23;;;;;;;9.63;1.73;;;;;;;17.53;52.18;99704.73;124935;1099;104261;-74
2022/10/02 10:57:03;;;;;;;2.60;1.60;;;;;;;17.63;51.60;99699.38;124922;1099;102807;-74
2022/10/02 10:59:54;;;;;;;4.77;1.63;;;;;;;17.71;51.81;99724.08;124969;1099;104156;-74
2022/10/02 11:02:52;;;;;;;7.17;1.87;;;;;;;17.58;51.60;99697.63;125047;1099;104188;-74
2022/10/02 11:05:46;;;;;;;2.60;1.27;;;;;;;17.54;51.28;99702.95;124990;1099;103683;-73
2022/10/02 11:08:36;;;;;;;6.43;1.60;;;;;;;17.45;51.00;99706.52;125205;1098;104187;-74
2022/10/02 11:11:17;;;;;;;4.40;1.40;;;;;;;17.55;51.49;99716.21;125271;1099;104332;-74
2022/10/02 11:14:04;;;;;;;6.63;1.70;;;;;;;17.65;50.95;99682.55;125038;1099;104616;-74
2022/10/02 11:17:17;;;;;;;6.67;1.70;;;;;;;17.67;50.80;99719.67;125131;1098;104244;-74
2022/10/02 11:20:19;;;;;;;4.33;2.10;;;;;;;17.56;50.42;99714.43;125048;1098;104256;-74
2022/10/02 11:23:19;;;;;;;6.93;2.13;;;;;;;17.65;51.22;99695.80;125019;1099;104182;-74
2022/10/02 11:26:26;;;;;;;5.33;2.00;;;;;;;17.70;50.59;99691.38;125098;1099;104200;-74
2022/10/02 11:29:33;;;;;;;3.07;2.37;;;;;;;17.67;50.46;99678.13;124811;1099;104237;-74
2022/10/02 11:32:39;;;;;;;10.60;2.47;;;;;;;17.66;50.57;99683.45;125078;1099;104181;-73
2022/10/02 11:35:23;;;;;;;8.13;2.63;;;;;;;17.58;51.12;99676.41;124841;1099;104236;-74
2022/10/02 11:38:31;;;;;;;4.37;2.43;;;;;;;17.79;51.05;99690.41;125091;1099;102219;-73
2022/10/02 11:41:42;;;;;;;6.63;2.30;;;;;;;18.07;50.87;99671.67;124976;1099;111934;-74
2022/10/02 11:44:28;;;;;;;3.27;2.27;;;;;;;18.22;50.06;99683.95;125204;1099;104211;-74
2022/10/02 11:47:33;;;;;;;3.70;2.20;;;;;;;18.24;50.36;99698.95;125680;1099;102883;-74
2022/10/02 11:50:40;;;;;;;6.03;2.33;;;;;;;18.16;50.29;99674.25;124931;1099;102941;-75
2022/10/02 11:53:52;;;;;;;6.10;2.37;;;;;;;18.07;50.45;99684.95;124753;1099;104195;-74
2022/10/02 11:56:34;;;;;;;7.70;2.50;;;;;;;17.95;50.77;99685.91;124751;1099;102868;-74
2022/10/02 11:59:28;;;;;;;8.53;2.33;;;;;;;17.86;50.38;99686.84;124831;1099;102408;-75
2022/10/02 12:02:06;;;;;;;3.58;2.10;;;;;;;17.70;50.50;99682.52;124774;1099;117785;-74
2022/10/02 12:04:54;;;;;;;4.83;2.20;;;;;;;17.66;51.01;99686.97;124773;1099;104051;-74
2022/10/02 12:07:41;;;;;;;4.00;2.10;;;;;;;17.73;50.99;99706.38;124770;1099;104178;-74
2022/10/02 12:10:38;;;;;;;2.93;2.27;;;;;;;17.87;50.97;99687.71;124731;1099;104258;-74
2022/10/02 12:13:31;;;;;;;3.47;2.53;;;;;;;18.10;50.87;99691.09;124701;1099;104264;-75
2022/10/02 12:16:20;;;;;;;2.77;2.23;;;;;;;18.21;50.41;99698.98;124780;1099;102854;-74
2022/10/02 12:19:08;;;;;;;6.73;2.30;;;;;;;18.17;50.25;99697.27;124756;1099;104232;-74
2022/10/02 12:27:52;;;;;;;5.33;2.20;;;;;;;18.00;49.78;99715.97;124793;1099;104156;-74
2022/10/02 12:30:26;;;;;;;2.67;2.43;;;;;;;18.02;49.63;99718.62;124771;1099;104253;-74
2022/10/02 12:33:18;;;;;;;4.47;2.33;;;;;;;17.98;49.04;99716.86;124760;1098;104201;-74
2022/10/02 12:36:24;;;;;;;8.97;2.77;;;;;;;17.88;48.35;99716.02;124756;1099;104210;-74
2022/10/02 12:39:04;;;;;;;13.30;3.10;;;;;;;17.75;48.93;99718.75;124808;1098;104602;-75
2022/10/02 12:41:57;;;;;;;3.27;2.87;;;;;;;17.68;48.98;99730.28;124782;1098;104194;-74
2022/10/02 12:44:43;;;;;;;4.73;2.83;;;;;;;17.70;49.54;99711.70;124773;1099;102116;-74
2022/10/02 12:47:29;;;;;;;5.00;2.63;;;;;;;17.74;49.30;99711.67;124771;1098;102762;-75
2022/10/02 12:50:15;;;;;;;3.60;2.67;;;;;;;17.79;49.13;99717.86;124811;1099;104166;-74